Date,TemperatureHighF,TemperatureAvgF,TemperatureLowF,DewpointHighF,DewpointAvgF,DewpointLowF,HumidityHigh,HumidityAvg,HumidityLow,PressureMaxIn,PressureMinIn,WindSpeedMaxMPH,WindSpeedAvgMPH,GustSpeedMaxMPH,PrecipitationSumIn
2013-3-1,30,28,23,-100,-100,-100,0,0,100,0.00,40.00,0,-999,0,0.00
2013-3-2,38,34,29,-100,-100,-100,0,0,100,0.00,40.00,0,-999,0,0.00
2013-3-3,35,30,11,-100,-100,-100,0,0,100,0.00,40.00,0,-999,0,0.01
2013-3-4,24,8,-8,-100,-100,-100,0,0,100,0.00,40.00,0,-999,0,0.01
2013-3-5,33,12,-10,-100,-100,-100,0,0,100,0.00,40.00,0,-999,0,0.00
2013-3-6,34,23,4,-100,-100,-100,0,0,100,0.00,40.00,0,-999,0,0.02
2013-3-7,36,30,24,-100,-100,-100,0,0,100,0.00,40.00,0,-999,0,0.02
2013-3-8,39,32,20,-100,-100,-100,0,0,100,0.00,40.00,0,-999,0,0.01
2013-3-9,38,24,5,-100,-100,-100,0,0,100,0.00,40.00,0,-999,0,0.01
2013-3-10,38,28,-2,-100,-100,-100,0,0,100,0.00,40.00,0,-999,0,0.00
2013-3-11,41,32,23,-100,-100,-100,0,0,100,0.00,40.00,0,-999,0,0.00
2013-3-12,39,24,6,-100,-100,-100,0,0,100,0.00,40.00,0,-999,0,0.00
2013-3-13,45,39,35,-100,-100,-100,0,0,100,0.00,40.00,0,-999,0,0.00
2013-3-14,53,39,26,-100,-100,-100,0,0,100,0.00,40.00,0,-999,0,0.00
2013-3-15,50,42,34,-100,-100,-100,0,0,100,0.00,40.00,0,-999,0,0.00
2013-3-16,44,36,25,-100,-100,-100,0,0,100,0.00,40.00,0,-999,0,0.00
2013-3-17,36,27,14,-100,-100,-100,0,0,100,0.00,40.00,0,-999,0,0.01
2013-3-18,30,21,5,-100,-100,-100,0,0,100,0.00,40.00,0,-999,0,0.00
2013-3-19,37,24,9,-100,-100,-100,0,0,100,0.00,40.00,0,-999,0,0.00
2013-3-20,36,28,16,-100,-100,-100,0,0,100,0.00,40.00,0,-999,0,0.00
2013-3-21,34,28,19,-100,-100,-100,0,0,100,0.00,40.00,0,-999,0,0.01
2013-3-22,28,19,4,-100,-100,-100,0,0,100,0.00,40.00,0,-999,0,0.00
2013-3-23,30,10,-15,-100,-100,-100,0,0,100,0.00,40.00,0,-999,0,0.01
2013-3-24,30,7,-19,-100,-100,-100,0,0,100,0.00,40.00,0,-999,0,0.01
2013-3-25,35,11,-18,-100,-100,-100,0,0,100,0.00,40.00,0,-999,0,0.00
2013-3-26,45,25,7,-100,-100,-100,0,0,100,0.00,40.00,0,-999,0,0.00
2013-3-27,44,34,28,-100,-100,-100,0,0,100,0.00,40.00,0,-999,0,0.00
2013-3-28,50,34,16,-100,-100,-100,0,0,100,0.00,40.00,0,-999,0,0.00
2013-3-29,48,36,25,-100,-100,-100,0,0,100,0.00,40.00,0,-999,0,0.00
2013-3-30,48,38,29,-100,-100,-100,0,0,100,0.00,40.00,0,-999,0,0.00
2013-3-31,54,36,19,-100,-100,-100,0,0,100,0.00,40.00,0,-999,0,0.00